Home   Weather   Germany   Schwedt/Oder   Past weeks
Flag for Germany

Past Weather in Schwedt/Oder, Brandenburg, Germany — Yesterday and Last 2 Weeks

Currently: 30 °F. Clear. (Weather station: Szczecin Airport, Germany). See more current weather

Past Weather in Schwedt/Oder — Graph

°F

Schwedt/Oder Temperature Yesterday

Maximum temperature yesterday: 43 °F (at 1:00 am)
Minimum temperature yesterday: 30 °F (at 11:30 pm)
Average temperature yesterday: 36 °F

High & Low Weather Summary for the Past Weeks

 TemperatureHumidityPressure
High63 °F (Feb 24, 2:00 pm)100% (Feb 18, 7:00 pm)30.60 "Hg (Feb 18, 7:00 pm)
Low23 °F (Mar 5, 5:00 am)39% (Mar 5, 1:30 pm)29.83 "Hg (Feb 19, 4:00 am)
Average41 °F84%30.29 "Hg
* Reported Feb 18 7:00 pm — Mar 5 7:30 pm, Schwedt/Oder. Weather by CustomWeather, © 2021

Note: Actual official high and low records may vary slightly from our data, if they occured in-between our weather recording intervals... More about our weather records

Schwedt/Oder Weather History for the Previous 24 Hours

Scroll right to see more
 ConditionsComfort  
Time TempWeatherWind HumidityBarometerVisibility
7:30 pm
Fri, Mar 5
32 °FClear.3 mph64%30.33 "Hg10 mi
7:00 pm32 °FClear.5 mph64%30.33 "Hg10 mi
6:30 pm32 °FClear.7 mph64%30.33 "Hg10 mi
6:00 pm34 °FClear.9 mph60%30.30 "Hg10 mi
5:30 pm37 °FSunny.12 mph52%30.30 "Hg10 mi
5:00 pm39 °FSunny.16 mph42%30.30 "Hg10 mi
4:30 pm39 °FSunny.15 mph42%30.27 "Hg10 mi
4:00 pm39 °FSunny.14 mph42%30.27 "Hg10 mi
3:30 pm39 °FPassing clouds.15 mph42%30.27 "HgN/A
3:00 pm41 °FPassing clouds.20 mph42%30.27 "HgN/A
2:30 pm41 °FPassing clouds.17 mph42%30.27 "HgN/A
2:00 pm39 °FSunny.17 mph45%30.27 "Hg10 mi
1:30 pm41 °FPassing clouds.13 mph39%30.24 "HgN/A
1:00 pm39 °FPassing clouds.14 mph45%30.24 "HgN/A
12:30 pm39 °FPassing clouds.14 mph45%30.24 "HgN/A
12:00 pm39 °FPassing clouds.15 mph45%30.24 "HgN/A
11:30 am39 °FPassing clouds.15 mph48%30.24 "HgN/A
11:00 am37 °FPassing clouds.10 mph56%30.24 "HgN/A
10:30 am37 °FPassing clouds.12 mph65%30.21 "HgN/A
10:00 am36 °FPassing clouds.12 mph75%30.21 "HgN/A
9:30 am34 °FSunny.12 mph87%30.21 "Hg10 mi
9:00 am32 °FSunny.8 mph93%30.21 "Hg10 mi
8:30 am30 °FSunny.6 mph93%30.18 "Hg10 mi
8:00 am27 °FSunny.5 mph100%30.18 "Hg10 mi
7:30 am25 °FPassing clouds.5 mph100%30.15 "HgN/A
7:00 am25 °FPassing clouds.5 mph93%30.15 "HgN/A
6:30 am23 °FFog.2 mph100%30.15 "HgN/A
6:00 am25 °FFog.1 mph100%30.15 "HgN/A
5:30 am23 °FIce fog.1 mph100%30.15 "Hg1 mi
5:00 am23 °FIce fog.1 mph100%30.12 "Hg2 mi
4:30 am25 °FIce fog.2 mph93%30.12 "Hg2 mi
4:00 am25 °FIce fog.2 mph100%30.12 "Hg3 mi
3:30 am25 °FClear.2 mph100%30.12 "Hg10 mi
3:00 am28 °FPassing clouds.3 mph93%30.12 "HgN/A
2:30 am28 °FClear.5 mph93%30.12 "Hg10 mi
2:00 am28 °FClear.5 mph93%30.12 "Hg10 mi
1:30 am28 °FClear.5 mph93%30.09 "Hg10 mi
1:00 am28 °FClear.2 mph93%30.09 "Hg10 mi
12:30 am28 °FClear.2 mph93%30.09 "Hg10 mi
12:00 am30 °FClear.2 mph86%30.09 "Hg10 mi
11:30 pm
Thu, Mar 4
30 °FClear.5 mph93%30.09 "Hg10 mi
11:00 pm32 °FPassing clouds.5 mph87%30.07 "HgN/A
10:30 pm34 °FPassing clouds.5 mph87%30.07 "HgN/A
10:00 pm34 °FPassing clouds.5 mph87%30.07 "HgN/A
9:30 pm34 °FPassing clouds.2 mph87%30.04 "HgN/A
9:00 pm34 °FMostly cloudy.5 mph87%30.04 "HgN/A
Weather by CustomWeather, © 2021

See weather overview